createdAt,value
2023-03-17T00:01:45.587Z,4.40
2023-03-17T00:04:12.930Z,3.53
2023-03-17T00:06:41.518Z,4.13
2023-03-17T00:09:15.062Z,2.75
2023-03-17T00:11:42.187Z,3.08
2023-03-17T00:14:09.402Z,2.92
2023-03-17T00:16:41.641Z,3.00
2023-03-17T00:19:14.654Z,3.97
2023-03-17T00:21:42.208Z,3.15
2023-03-17T00:24:11.886Z,3.63
2023-03-17T00:26:41.174Z,4.20
2023-03-17T00:29:08.704Z,3.63
2023-03-17T00:31:35.786Z,4.18
2023-03-17T00:34:02.664Z,4.13
2023-03-17T00:36:31.702Z,2.65
2023-03-17T00:38:59.407Z,2.63
2023-03-17T00:41:27.304Z,3.83
2023-03-17T00:43:54.173Z,2.70
2023-03-17T00:46:25.634Z,2.88
2023-03-17T00:51:19.756Z,3.13
2023-03-17T00:53:48.028Z,2.90
2023-03-17T00:56:19.236Z,2.58
2023-03-17T00:58:46.351Z,3.05
2023-03-17T01:01:13.293Z,3.97
2023-03-17T01:03:40.502Z,2.55
2023-03-17T01:06:08.786Z,3.72
2023-03-17T01:08:36.875Z,2.65
2023-03-17T01:11:03.760Z,4.07
2023-03-17T01:13:30.569Z,2.42
2023-03-17T01:15:57.858Z,3.35
2023-03-17T01:18:24.860Z,3.42
2023-03-17T01:20:51.799Z,2.83
2023-03-17T01:23:18.769Z,2.85
2023-03-17T01:25:45.656Z,3.08
2023-03-17T01:28:13.859Z,3.05
2023-03-17T01:30:41.055Z,2.50
2023-03-17T01:33:11.492Z,4.38
2023-03-17T01:35:38.673Z,3.05
2023-03-17T01:38:06.300Z,2.80
2023-03-17T01:40:37.374Z,2.72
2023-03-17T01:43:17.573Z,3.97
2023-03-17T01:46:02.942Z,3.05
2023-03-17T01:48:31.643Z,3.28
2023-03-17T01:50:59.076Z,3.35
2023-03-17T01:53:26.722Z,3.10
2023-03-17T01:55:53.601Z,3.70
2023-03-17T01:58:21.760Z,3.33
2023-03-17T02:00:48.758Z,5.03
2023-03-17T02:03:16.456Z,3.40
2023-03-17T02:05:44.261Z,4.22
2023-03-17T02:08:12.632Z,4.18
2023-03-17T02:10:39.944Z,4.15
2023-03-17T02:13:07.880Z,3.65
2023-03-17T02:15:42.782Z,4.00
2023-03-17T02:18:11.727Z,3.83
2023-03-17T02:20:58.865Z,4.65
2023-03-17T02:23:25.897Z,3.38
2023-03-17T02:25:53.841Z,3.33
2023-03-17T02:28:23.361Z,2.75
2023-03-17T02:30:50.171Z,2.63
2023-03-17T02:33:17.931Z,2.97
2023-03-17T02:35:45.141Z,2.03
2023-03-17T02:38:11.961Z,3.22
2023-03-17T02:40:38.744Z,2.72
2023-03-17T02:43:05.824Z,2.47
2023-03-17T02:45:32.674Z,2.60
2023-03-17T02:47:59.619Z,3.40
2023-03-17T02:50:29.098Z,2.67
2023-03-17T02:52:56.189Z,3.03
2023-03-17T02:55:23.004Z,2.40
2023-03-17T02:57:49.820Z,2.67
2023-03-17T03:00:19.334Z,2.90
2023-03-17T03:02:46.238Z,2.75
2023-03-17T03:05:13.177Z,2.30
2023-03-17T03:07:39.985Z,3.47
2023-03-17T03:10:07.150Z,2.88
2023-03-17T03:12:33.961Z,2.65
2023-03-17T03:15:00.931Z,2.80
2023-03-17T03:17:27.977Z,2.97
2023-03-17T03:19:55.493Z,2.95
2023-03-17T03:22:22.230Z,3.13
2023-03-17T03:24:49.095Z,2.42
2023-03-17T03:27:17.057Z,3.28
2023-03-17T03:29:43.859Z,2.90
2023-03-17T03:32:11.016Z,2.90
2023-03-17T03:34:37.830Z,2.60
2023-03-17T03:37:04.611Z,2.10
2023-03-17T03:39:32.087Z,2.47
2023-03-17T03:41:58.886Z,2.60
2023-03-17T03:44:25.779Z,2.25
2023-03-17T03:46:52.674Z,2.28
2023-03-17T03:49:19.576Z,2.45
2023-03-17T03:51:46.473Z,2.35
2023-03-17T03:54:13.322Z,2.83
2023-03-17T03:56:40.102Z,3.83
2023-03-17T03:59:07.455Z,2.83
2023-03-17T04:01:34.210Z,3.42
2023-03-17T04:04:01.387Z,3.28
2023-03-17T04:06:28.237Z,2.80
2023-03-17T04:08:57.085Z,3.65
2023-03-17T04:11:25.054Z,3.15
2023-03-17T04:13:52.170Z,3.70
2023-03-17T04:16:19.023Z,3.50
2023-03-17T04:18:46.125Z,2.95
2023-03-17T04:21:13.899Z,3.03
2023-03-17T04:23:40.738Z,4.10
2023-03-17T04:26:07.586Z,3.65
2023-03-17T04:28:34.437Z,3.17
2023-03-17T04:31:01.672Z,2.65
2023-03-17T04:33:28.883Z,2.00
2023-03-17T04:35:56.200Z,2.75
2023-03-17T04:38:23.022Z,2.38
2023-03-17T04:40:50.708Z,2.47
2023-03-17T04:43:18.316Z,2.33
2023-03-17T04:45:45.227Z,2.47
2023-03-17T04:48:12.014Z,2.42
2023-03-17T04:50:39.241Z,2.20
2023-03-17T04:53:06.892Z,2.10
2023-03-17T04:55:33.758Z,2.38
2023-03-17T04:58:00.772Z,2.72
2023-03-17T05:00:28.198Z,2.90
2023-03-17T05:02:55.121Z,3.08
2023-03-17T05:05:21.952Z,2.85
2023-03-17T05:07:48.710Z,3.13
2023-03-17T05:10:16.405Z,2.22
2023-03-17T05:12:43.366Z,2.60
2023-03-17T05:15:11.301Z,3.20
2023-03-17T05:17:38.071Z,2.90
2023-03-17T05:20:05.124Z,3.50
2023-03-17T05:22:31.997Z,3.03
2023-03-17T05:24:59.160Z,2.63
2023-03-17T05:27:26.410Z,2.88
2023-03-17T05:29:53.369Z,3.30
2023-03-17T05:32:20.202Z,4.28
2023-03-17T05:34:47.265Z,3.95
2023-03-17T05:37:14.409Z,3.90
2023-03-17T05:39:42.221Z,7.22
2023-03-17T05:42:09.093Z,5.43
2023-03-17T05:44:36.079Z,6.03
2023-03-17T05:47:03.042Z,5.85
2023-03-17T05:49:29.829Z,4.93
2023-03-17T05:51:56.615Z,4.13
2023-03-17T05:54:24.489Z,2.92
2023-03-17T05:56:51.732Z,2.97
2023-03-17T05:59:18.667Z,4.07
2023-03-17T06:01:45.621Z,3.53
2023-03-17T06:04:12.816Z,3.05
2023-03-17T06:06:40.142Z,3.47
2023-03-17T06:09:07.128Z,3.33
2023-03-17T06:11:36.440Z,2.55
2023-03-17T06:14:03.365Z,3.95
2023-03-17T06:16:33.243Z,4.20
2023-03-17T06:19:00.371Z,5.70
2023-03-17T06:21:27.509Z,4.78
2023-03-17T06:23:54.719Z,6.53
2023-03-17T06:26:21.629Z,5.82
2023-03-17T06:28:49.521Z,3.78
2023-03-17T06:31:16.473Z,4.88
2023-03-17T06:33:44.076Z,4.65
2023-03-17T06:36:11.065Z,3.67
2023-03-17T06:38:38.161Z,5.28
2023-03-17T06:41:05.296Z,9.57
2023-03-17T06:43:33.155Z,7.10
2023-03-17T06:46:00.003Z,5.90
2023-03-17T06:48:27.115Z,6.97
2023-03-17T06:50:54.125Z,5.68
2023-03-17T06:53:21.240Z,5.75
2023-03-17T06:55:48.610Z,5.05
2023-03-17T06:58:16.126Z,4.97
2023-03-17T07:00:45.566Z,5.38
2023-03-17T07:03:12.479Z,3.60
2023-03-17T07:05:39.986Z,3.78
2023-03-17T07:08:06.906Z,2.63
2023-03-17T07:10:34.097Z,3.38
2023-03-17T07:13:01.011Z,3.08
2023-03-17T07:15:27.879Z,2.78
2023-03-17T07:17:54.768Z,2.22
2023-03-17T07:20:21.906Z,3.88
2023-03-17T07:22:48.820Z,7.20
2023-03-17T07:25:15.980Z,4.28
2023-03-17T07:27:43.002Z,4.97
2023-03-17T07:30:11.024Z,3.28
2023-03-17T07:32:38.020Z,2.30
2023-03-17T07:35:05.736Z,3.28
2023-03-17T07:37:32.631Z,4.07
2023-03-17T07:39:59.682Z,4.03
2023-03-17T07:42:29.092Z,3.90
2023-03-17T07:44:56.437Z,3.80
2023-03-17T07:47:24.303Z,2.70
2023-03-17T07:49:51.198Z,3.25
2023-03-17T07:52:18.212Z,2.50
2023-03-17T07:54:45.217Z,2.05
2023-03-17T07:57:12.397Z,3.90
2023-03-17T07:59:41.333Z,1.98
2023-03-17T08:02:10.773Z,2.33
2023-03-17T08:04:37.763Z,2.17
2023-03-17T08:10:00.609Z,1.67
2023-03-17T08:12:27.652Z,1.77
2023-03-17T08:14:55.622Z,2.63
2023-03-17T08:17:27.361Z,5.03
2023-03-17T08:19:57.987Z,2.63
2023-03-17T08:22:25.178Z,2.83
2023-03-17T08:24:52.256Z,3.88
2023-03-17T08:27:20.869Z,8.68
2023-03-17T08:29:48.283Z,3.60
2023-03-17T08:32:15.323Z,3.85
2023-03-17T08:34:44.672Z,2.70
2023-03-17T08:37:11.686Z,2.50
2023-03-17T08:39:38.556Z,3.38
2023-03-17T08:42:05.408Z,3.10
2023-03-17T08:44:32.257Z,2.75
2023-03-17T08:46:59.058Z,2.60
2023-03-17T08:49:26.741Z,3.05
2023-03-17T08:51:53.946Z,2.97
2023-03-17T08:54:21.480Z,2.40
2023-03-17T08:56:48.373Z,2.97
2023-03-17T08:59:16.913Z,3.70
2023-03-17T09:01:45.564Z,2.95
2023-03-17T09:04:12.444Z,2.65
2023-03-17T09:06:44.064Z,3.90
2023-03-17T09:09:17.411Z,3.03
2023-03-17T09:11:44.344Z,4.63
2023-03-17T09:14:11.490Z,5.05
2023-03-17T09:16:38.923Z,4.20
2023-03-17T09:19:05.773Z,3.40
2023-03-17T09:21:32.756Z,3.03
2023-03-17T09:24:02.414Z,4.57
2023-03-17T09:26:29.634Z,2.88
2023-03-17T09:28:56.452Z,3.30
2023-03-17T09:31:23.384Z,3.75
2023-03-17T09:33:50.379Z,4.55
2023-03-17T09:36:17.137Z,4.53
2023-03-17T09:38:43.956Z,3.83
2023-03-17T09:41:37.376Z,4.05
2023-03-17T09:44:42.584Z,3.60
2023-03-17T09:47:19.932Z,2.20
2023-03-17T09:50:08.344Z,7.00
2023-03-17T09:52:36.437Z,2.63
2023-03-17T09:55:04.396Z,3.50
2023-03-17T09:57:38.262Z,3.70
2023-03-17T10:00:27.657Z,4.70
2023-03-17T10:02:54.767Z,2.35
2023-03-17T10:05:26.258Z,1.65
2023-03-17T10:08:05.338Z,2.55
2023-03-17T10:10:37.583Z,1.67
2023-03-17T10:13:10.750Z,1.60
2023-03-17T10:15:41.358Z,1.58
2023-03-17T10:18:09.602Z,2.38
2023-03-17T10:20:38.072Z,2.90
2023-03-17T10:23:12.558Z,4.43
2023-03-17T10:25:39.628Z,3.22
2023-03-17T10:28:32.774Z,3.08
2023-03-17T10:31:35.685Z,1.52
2023-03-17T10:34:13.325Z,2.33
2023-03-17T10:36:42.653Z,3.63
2023-03-17T10:39:11.060Z,2.67
2023-03-17T10:41:39.940Z,3.03
2023-03-17T10:44:11.308Z,3.67
2023-03-17T10:49:17.147Z,2.13
2023-03-17T10:51:46.530Z,1.42
2023-03-17T10:54:20.506Z,3.75
2023-03-17T10:56:49.085Z,2.03
2023-03-17T10:59:20.224Z,8.60
2023-03-17T11:01:50.188Z,2.72
2023-03-17T11:04:32.210Z,2.42
2023-03-17T11:07:00.567Z,3.03
2023-03-17T11:09:30.767Z,3.25
2023-03-17T11:12:02.560Z,1.10
2023-03-17T11:14:29.489Z,3.13
2023-03-17T11:16:57.833Z,2.15
2023-03-17T11:19:33.374Z,3.80
2023-03-17T11:22:15.840Z,1.60
2023-03-17T11:24:50.200Z,2.03
2023-03-17T11:27:28.838Z,1.40
2023-03-17T11:30:25.255Z,0.95
2023-03-17T11:32:57.733Z,1.13
2023-03-17T11:35:34.522Z,2.25
2023-03-17T11:38:26.626Z,1.33
2023-03-17T11:41:14.464Z,1.90
2023-03-17T11:43:52.401Z,6.55
2023-03-17T11:46:31.108Z,1.70
2023-03-17T11:49:08.285Z,2.80
2023-03-17T11:51:49.386Z,1.60
2023-03-17T11:54:42.270Z,1.17
2023-03-17T11:57:16.834Z,1.40
2023-03-17T11:59:54.624Z,1.90
2023-03-17T12:02:42.755Z,1.40
2023-03-17T12:05:11.681Z,2.97
2023-03-17T12:08:04.987Z,2.15
2023-03-17T12:10:45.387Z,2.75
2023-03-17T12:13:34.261Z,4.15
2023-03-17T12:16:07.037Z,2.13
2023-03-17T12:18:53.151Z,2.95
2023-03-17T12:21:58.482Z,1.20
2023-03-17T12:24:45.749Z,2.80
2023-03-17T12:27:31.809Z,1.17
2023-03-17T12:30:00.777Z,1.20
2023-03-17T12:32:48.217Z,2.50
2023-03-17T12:35:35.095Z,4.05
2023-03-17T12:38:14.081Z,5.47
2023-03-17T12:40:54.126Z,2.67
2023-03-17T12:43:59.358Z,1.88
2023-03-17T12:46:44.776Z,2.88
2023-03-17T12:49:38.269Z,4.47
2023-03-17T12:52:25.680Z,3.60
2023-03-17T12:54:53.870Z,3.28
2023-03-17T12:57:40.799Z,1.42
2023-03-17T13:00:17.325Z,1.38
2023-03-17T13:02:48.593Z,3.42
2023-03-17T13:05:16.570Z,2.65
2023-03-17T13:07:50.673Z,3.83
2023-03-17T13:10:40.990Z,5.35
2023-03-17T13:13:28.307Z,15.25
2023-03-17T13:15:58.197Z,9.75
2023-03-17T13:18:44.228Z,5.75
2023-03-17T13:21:13.214Z,8.10
2023-03-17T13:24:00.266Z,3.83
2023-03-17T13:26:46.230Z,6.22
2023-03-17T13:29:32.340Z,3.50
2023-03-17T13:32:38.743Z,1.77
2023-03-17T13:35:17.564Z,1.40
2023-03-17T13:37:52.028Z,2.88
2023-03-17T13:40:24.845Z,1.30
2023-03-17T13:43:11.256Z,4.13
2023-03-17T13:45:42.230Z,2.83
2023-03-17T13:48:27.558Z,4.47
2023-03-17T13:50:57.917Z,2.67
2023-03-17T13:53:27.943Z,1.98
2023-03-17T13:56:08.831Z,2.17
2023-03-17T13:58:50.154Z,2.42
2023-03-17T14:01:17.549Z,2.58
2023-03-17T14:03:49.364Z,4.55
2023-03-17T14:06:18.067Z,2.10
2023-03-17T14:08:48.011Z,2.28
2023-03-17T14:11:41.267Z,2.30
2023-03-17T14:14:32.912Z,2.53
2023-03-17T14:17:19.303Z,2.22
2023-03-17T14:20:05.734Z,1.52
2023-03-17T14:22:32.797Z,3.33
2023-03-17T14:25:01.617Z,2.70
2023-03-17T14:27:30.493Z,2.70
2023-03-17T14:30:04.755Z,3.92
2023-03-17T14:32:32.418Z,2.55
2023-03-17T14:34:59.930Z,2.45
2023-03-17T14:37:27.828Z,4.10
2023-03-17T14:39:56.371Z,2.42
2023-03-17T14:42:32.334Z,1.60
2023-03-17T14:45:04.495Z,4.47
2023-03-17T14:47:37.441Z,1.60
2023-03-17T14:50:17.177Z,3.15
2023-03-17T14:52:44.270Z,2.85
2023-03-17T14:55:13.982Z,3.80
2023-03-17T14:57:40.822Z,2.40
2023-03-17T15:00:32.062Z,2.05
2023-03-17T15:02:59.959Z,3.88
2023-03-17T15:05:30.892Z,2.33
2023-03-17T15:07:58.116Z,3.28
2023-03-17T15:10:26.801Z,2.00
2023-03-17T15:13:01.204Z,1.98
2023-03-17T15:15:35.843Z,3.13
2023-03-17T15:18:10.728Z,3.20
2023-03-17T15:20:40.207Z,2.30
2023-03-17T15:23:36.089Z,2.65
2023-03-17T15:26:03.428Z,3.20
2023-03-17T15:28:31.655Z,6.28
2023-03-17T15:31:05.536Z,2.33
2023-03-17T15:33:37.085Z,1.80
2023-03-17T15:36:04.475Z,2.80
2023-03-17T15:38:31.703Z,3.15
2023-03-17T15:40:58.475Z,3.40
2023-03-17T15:43:25.635Z,2.67
2023-03-17T15:45:58.373Z,3.40
2023-03-17T15:48:30.104Z,3.50
2023-03-17T15:50:57.792Z,2.25
2023-03-17T15:53:24.585Z,2.00
2023-03-17T15:55:51.468Z,2.75
2023-03-17T15:58:18.248Z,2.75
2023-03-17T16:00:47.513Z,2.30
2023-03-17T16:03:21.296Z,3.72
2023-03-17T16:05:48.204Z,3.25
2023-03-17T16:08:16.070Z,4.72
2023-03-17T16:10:42.876Z,3.35
2023-03-17T16:13:09.806Z,2.47
2023-03-17T16:15:38.165Z,2.60
2023-03-17T16:18:08.424Z,2.78
2023-03-17T16:20:39.846Z,4.35
2023-03-17T16:23:09.015Z,2.50
2023-03-17T16:25:37.018Z,2.35
2023-03-17T16:28:07.990Z,3.92
2023-03-17T16:30:35.056Z,4.25
2023-03-17T16:33:22.153Z,3.67
2023-03-17T16:35:49.583Z,4.57
2023-03-17T16:38:17.897Z,2.95
2023-03-17T16:40:54.879Z,2.50
2023-03-17T16:43:32.219Z,3.60
2023-03-17T16:45:59.771Z,5.15
2023-03-17T16:48:26.935Z,5.93
2023-03-17T16:50:54.145Z,4.15
2023-03-17T16:53:21.433Z,3.40
2023-03-17T16:55:48.451Z,3.28
2023-03-17T16:58:19.539Z,4.82
2023-03-17T17:00:46.937Z,3.28
2023-03-17T17:03:13.965Z,3.33
2023-03-17T17:05:41.862Z,2.55
2023-03-17T17:08:09.359Z,2.60
2023-03-17T17:10:37.202Z,3.13
2023-03-17T17:13:07.158Z,5.15
2023-03-17T17:15:35.522Z,2.58
2023-03-17T17:18:04.368Z,4.85
2023-03-17T17:20:32.926Z,3.25
2023-03-17T17:23:00.502Z,4.57
2023-03-17T17:25:27.864Z,3.20
2023-03-17T17:27:54.705Z,5.63
2023-03-17T17:30:24.620Z,3.60
2023-03-17T17:32:52.018Z,3.22
2023-03-17T17:35:19.065Z,3.90
2023-03-17T17:37:45.924Z,4.50
2023-03-17T17:40:14.077Z,4.35
2023-03-17T17:42:41.112Z,5.55
2023-03-17T17:45:08.655Z,4.38
2023-03-17T17:47:35.517Z,4.90
2023-03-17T17:50:02.583Z,6.80
2023-03-17T17:52:29.369Z,4.55
2023-03-17T17:54:57.425Z,4.57
2023-03-17T17:57:24.392Z,3.65
2023-03-17T17:59:51.174Z,4.28
2023-03-17T18:02:18.113Z,4.07
2023-03-17T18:04:44.999Z,3.83
2023-03-17T18:07:11.867Z,6.55
2023-03-17T18:09:38.768Z,8.50
2023-03-17T18:12:05.786Z,9.55
2023-03-17T18:14:32.802Z,7.35
2023-03-17T18:16:59.805Z,6.50
2023-03-17T18:19:26.661Z,6.38
2023-03-17T18:21:53.537Z,5.50
2023-03-17T18:24:22.080Z,5.38
2023-03-17T18:26:48.997Z,7.32
2023-03-17T18:29:15.965Z,5.65
2023-03-17T18:31:44.485Z,5.95
2023-03-17T18:34:24.496Z,5.72
2023-03-17T18:36:52.247Z,6.32
2023-03-17T18:39:19.153Z,5.68
2023-03-17T18:41:45.907Z,5.75
2023-03-17T18:44:12.754Z,5.22
2023-03-17T18:46:39.623Z,12.98
2023-03-17T18:49:07.118Z,14.88
2023-03-17T18:51:34.002Z,16.42
2023-03-17T18:54:00.971Z,20.58
2023-03-17T18:56:30.186Z,15.73
2023-03-17T18:58:57.635Z,16.55
2023-03-17T19:01:24.619Z,17.45
2023-03-17T19:03:51.794Z,20.75
2023-03-17T19:06:19.868Z,15.48
2023-03-17T19:08:47.173Z,11.98
2023-03-17T19:11:16.206Z,7.50
2023-03-17T19:13:43.161Z,6.13
2023-03-17T19:16:10.637Z,6.18
2023-03-17T19:18:38.308Z,6.03
2023-03-17T19:21:05.947Z,7.75
2023-03-17T19:23:33.773Z,6.63
2023-03-17T19:26:01.384Z,5.32
2023-03-17T19:28:28.540Z,5.72
2023-03-17T19:30:56.489Z,18.20
2023-03-17T19:33:23.430Z,6.32
2023-03-17T19:35:55.014Z,6.85
2023-03-17T19:38:22.542Z,5.80
2023-03-17T19:40:49.316Z,6.35
2023-03-17T19:43:28.814Z,7.03
2023-03-17T19:46:03.567Z,5.25
2023-03-17T19:48:30.508Z,5.05
2023-03-17T19:50:57.844Z,4.57
2023-03-17T19:53:24.736Z,4.13
2023-03-17T19:55:51.606Z,4.43
2023-03-17T19:58:18.425Z,6.70
2023-03-17T20:00:45.368Z,8.23
2023-03-17T20:03:12.943Z,7.00
2023-03-17T20:05:39.729Z,7.90
2023-03-17T20:08:08.024Z,7.10
2023-03-17T20:10:34.777Z,7.90
2023-03-17T20:13:01.930Z,7.40
2023-03-17T20:15:29.593Z,8.82
2023-03-17T20:17:56.912Z,9.55
2023-03-17T20:20:24.445Z,8.65
2023-03-17T20:22:51.307Z,8.90
2023-03-17T20:25:18.383Z,8.48
2023-03-17T20:27:45.368Z,6.75
2023-03-17T20:30:12.601Z,5.28
2023-03-17T20:32:39.973Z,4.90
2023-03-17T20:35:08.245Z,6.07
2023-03-17T20:37:35.955Z,4.60
2023-03-17T20:40:05.467Z,4.68
2023-03-17T20:42:32.296Z,5.13
2023-03-17T20:44:59.239Z,5.38
2023-03-17T20:47:26.759Z,5.15
2023-03-17T20:49:54.818Z,5.10
2023-03-17T20:52:22.559Z,5.10
2023-03-17T20:54:49.361Z,5.93
2023-03-17T20:57:16.257Z,5.72
2023-03-17T20:59:44.031Z,3.65
2023-03-17T21:02:14.768Z,4.45
2023-03-17T21:04:46.642Z,9.48
2023-03-17T21:07:17.896Z,15.15
2023-03-17T21:09:45.156Z,13.15
2023-03-17T21:12:13.168Z,13.70
2023-03-17T21:14:40.025Z,16.05
2023-03-17T21:17:08.036Z,14.50
2023-03-17T21:19:34.990Z,12.38
2023-03-17T21:22:01.750Z,9.88
2023-03-17T21:24:31.470Z,9.63
2023-03-17T21:26:59.822Z,9.65
2023-03-17T21:29:27.563Z,10.43
2023-03-17T21:31:54.760Z,6.47
2023-03-17T21:34:21.663Z,6.40
2023-03-17T21:36:48.520Z,9.77
2023-03-17T21:39:15.394Z,6.32
2023-03-17T21:41:42.340Z,6.70
2023-03-17T21:44:09.886Z,2.95
2023-03-17T21:46:36.725Z,3.38
2023-03-17T21:49:03.722Z,3.30
2023-03-17T21:51:30.955Z,2.22
2023-03-17T21:53:58.234Z,2.85
2023-03-17T21:56:25.044Z,3.25
2023-03-17T21:58:51.943Z,2.72
2023-03-17T22:01:19.503Z,3.05
2023-03-17T22:03:46.277Z,3.28
2023-03-17T22:06:13.472Z,2.53
2023-03-17T22:08:40.687Z,2.88
2023-03-17T22:11:11.815Z,2.63
2023-03-17T22:13:38.601Z,3.13
2023-03-17T22:16:05.596Z,2.95
2023-03-17T22:18:32.838Z,2.92
2023-03-17T22:21:00.134Z,2.78
2023-03-17T22:23:27.955Z,2.25
2023-03-17T22:25:55.403Z,3.67
2023-03-17T22:28:22.644Z,2.95
2023-03-17T22:30:49.405Z,2.60
2023-03-17T22:33:16.227Z,2.67
2023-03-17T22:35:43.172Z,3.00
2023-03-17T22:38:11.074Z,3.83
2023-03-17T22:40:37.835Z,3.03
2023-03-17T22:43:04.889Z,2.35
2023-03-17T22:45:31.762Z,3.42
2023-03-17T22:47:58.591Z,2.33
2023-03-17T22:50:25.495Z,3.50
2023-03-17T22:52:52.265Z,2.45
2023-03-17T22:55:19.013Z,2.72
2023-03-17T22:57:46.099Z,2.75
2023-03-17T23:00:17.085Z,2.13
2023-03-17T23:02:44.691Z,3.58
2023-03-17T23:05:12.677Z,3.83
2023-03-17T23:07:49.470Z,2.40
2023-03-17T23:10:18.136Z,3.35
2023-03-17T23:12:45.052Z,2.63
2023-03-17T23:15:12.059Z,2.75
2023-03-17T23:17:39.144Z,2.90
2023-03-17T23:20:06.671Z,3.25
2023-03-17T23:22:33.525Z,3.45
2023-03-17T23:25:01.270Z,3.90
2023-03-17T23:27:28.367Z,2.78
2023-03-17T23:29:55.114Z,3.08
2023-03-17T23:32:22.707Z,2.20
2023-03-17T23:34:49.561Z,1.90
2023-03-17T23:37:16.301Z,2.72
2023-03-17T23:39:43.345Z,2.75
2023-03-17T23:42:10.139Z,3.97
2023-03-17T23:44:37.025Z,2.85
2023-03-17T23:47:04.454Z,2.90
2023-03-17T23:49:31.310Z,3.55
2023-03-17T23:51:58.874Z,4.28
2023-03-17T23:54:25.751Z,3.20
2023-03-17T23:56:52.812Z,3.38
2023-03-17T23:59:20.415Z,2.88
